sensor_id;sensor_type;location;lat;lon;timestamp;P1;durP1;ratioP1;P2;durP2;ratioP2
78787;SDS011;68131;52.508;5.502;2023-10-13T00:00:26;7.22;;;2.70;;
78787;SDS011;68131;52.508;5.502;2023-10-13T00:02:59;4.55;;;2.50;;
78787;SDS011;68131;52.508;5.502;2023-10-13T00:05:38;6.50;;;2.90;;
78787;SDS011;68131;52.508;5.502;2023-10-13T00:08:15;2.58;;;2.00;;
78787;SDS011;68131;52.508;5.502;2023-10-13T00:10:52;5.57;;;2.70;;
78787;SDS011;68131;52.508;5.502;2023-10-13T00:13:26;5.10;;;3.13;;
78787;SDS011;68131;52.508;5.502;2023-10-13T00:16:10;6.75;;;3.22;;
78787;SDS011;68131;52.508;5.502;2023-10-13T00:18:47;4.65;;;3.10;;
78787;SDS011;68131;52.508;5.502;2023-10-13T00:21:23;6.32;;;2.92;;
78787;SDS011;68131;52.508;5.502;2023-10-13T00:24:01;4.90;;;3.08;;
78787;SDS011;68131;52.508;5.502;2023-10-13T00:26:38;4.78;;;2.95;;
78787;SDS011;68131;52.508;5.502;2023-10-13T00:29:08;7.82;;;3.65;;
78787;SDS011;68131;52.508;5.502;2023-10-13T00:31:45;9.38;;;3.95;;
78787;SDS011;68131;52.508;5.502;2023-10-13T00:34:20;6.78;;;3.63;;
78787;SDS011;68131;52.508;5.502;2023-10-13T00:36:55;6.30;;;3.08;;
78787;SDS011;68131;52.508;5.502;2023-10-13T00:39:39;5.25;;;3.47;;
78787;SDS011;68131;52.508;5.502;2023-10-13T00:42:09;12.40;;;3.90;;
78787;SDS011;68131;52.508;5.502;2023-10-13T00:44:51;6.35;;;4.57;;
78787;SDS011;68131;52.508;5.502;2023-10-13T00:47:21;5.93;;;3.92;;
78787;SDS011;68131;52.508;5.502;2023-10-13T00:50:05;7.20;;;4.65;;
78787;SDS011;68131;52.508;5.502;2023-10-13T00:52:43;10.90;;;6.13;;
78787;SDS011;68131;52.508;5.502;2023-10-13T00:55:14;10.23;;;5.05;;
78787;SDS011;68131;52.508;5.502;2023-10-13T00:57:50;9.38;;;4.60;;
78787;SDS011;68131;52.508;5.502;2023-10-13T01:00:25;7.03;;;4.00;;
78787;SDS011;68131;52.508;5.502;2023-10-13T01:02:54;11.32;;;4.72;;
78787;SDS011;68131;52.508;5.502;2023-10-13T01:05:23;7.47;;;4.28;;
78787;SDS011;68131;52.508;5.502;2023-10-13T01:08:02;7.45;;;4.45;;
78787;SDS011;68131;52.508;5.502;2023-10-13T01:10:36;6.82;;;3.72;;
78787;SDS011;68131;52.508;5.502;2023-10-13T01:13:07;6.40;;;3.95;;
78787;SDS011;68131;52.508;5.502;2023-10-13T01:15:36;8.10;;;3.70;;
78787;SDS011;68131;52.508;5.502;2023-10-13T01:18:06;6.35;;;3.33;;
78787;SDS011;68131;52.508;5.502;2023-10-13T01:20:40;6.78;;;3.63;;
78787;SDS011;68131;52.508;5.502;2023-10-13T01:23:18;7.05;;;4.43;;
78787;SDS011;68131;52.508;5.502;2023-10-13T01:25:45;5.13;;;3.38;;
78787;SDS011;68131;52.508;5.502;2023-10-13T01:28:18;8.65;;;3.40;;
78787;SDS011;68131;52.508;5.502;2023-10-13T01:30:47;5.78;;;3.85;;
78787;SDS011;68131;52.508;5.502;2023-10-13T01:33:20;7.53;;;4.55;;
78787;SDS011;68131;52.508;5.502;2023-10-13T01:35:53;6.68;;;4.10;;
78787;SDS011;68131;52.508;5.502;2023-10-13T01:38:30;6.47;;;4.10;;
78787;SDS011;68131;52.508;5.502;2023-10-13T01:40:59;7.07;;;3.83;;
78787;SDS011;68131;52.508;5.502;2023-10-13T01:43:30;5.13;;;2.92;;
78787;SDS011;68131;52.508;5.502;2023-10-13T01:45:57;8.00;;;3.33;;
78787;SDS011;68131;52.508;5.502;2023-10-13T01:48:41;4.13;;;2.67;;
78787;SDS011;68131;52.508;5.502;2023-10-13T01:51:09;5.18;;;3.33;;
78787;SDS011;68131;52.508;5.502;2023-10-13T01:53:42;6.18;;;3.20;;
78787;SDS011;68131;52.508;5.502;2023-10-13T01:56:21;6.32;;;3.70;;
78787;SDS011;68131;52.508;5.502;2023-10-13T01:59:20;5.03;;;3.05;;
78787;SDS011;68131;52.508;5.502;2023-10-13T02:02:02;6.18;;;3.20;;
78787;SDS011;68131;52.508;5.502;2023-10-13T02:04:32;5.65;;;2.83;;
78787;SDS011;68131;52.508;5.502;2023-10-13T02:06:59;5.70;;;3.10;;
78787;SDS011;68131;52.508;5.502;2023-10-13T02:09:31;7.35;;;3.00;;
78787;SDS011;68131;52.508;5.502;2023-10-13T02:12:08;4.22;;;2.35;;
78787;SDS011;68131;52.508;5.502;2023-10-13T02:14:37;4.72;;;2.40;;
78787;SDS011;68131;52.508;5.502;2023-10-13T02:17:08;4.13;;;2.72;;
78787;SDS011;68131;52.508;5.502;2023-10-13T02:19:39;6.25;;;3.65;;
78787;SDS011;68131;52.508;5.502;2023-10-13T02:22:11;4.35;;;2.55;;
78787;SDS011;68131;52.508;5.502;2023-10-13T02:24:52;7.68;;;3.10;;
78787;SDS011;68131;52.508;5.502;2023-10-13T02:27:32;5.03;;;2.75;;
78787;SDS011;68131;52.508;5.502;2023-10-13T02:30:07;6.43;;;3.22;;
78787;SDS011;68131;52.508;5.502;2023-10-13T02:32:40;5.28;;;3.13;;
78787;SDS011;68131;52.508;5.502;2023-10-13T02:35:09;8.52;;;4.00;;
78787;SDS011;68131;52.508;5.502;2023-10-13T02:37:50;9.52;;;3.75;;
78787;SDS011;68131;52.508;5.502;2023-10-13T02:40:24;7.70;;;4.03;;
78787;SDS011;68131;52.508;5.502;2023-10-13T02:42:53;6.07;;;3.80;;
78787;SDS011;68131;52.508;5.502;2023-10-13T02:45:22;6.50;;;3.65;;
78787;SDS011;68131;52.508;5.502;2023-10-13T02:47:56;9.07;;;4.00;;
78787;SDS011;68131;52.508;5.502;2023-10-13T02:50:39;10.52;;;4.97;;
78787;SDS011;68131;52.508;5.502;2023-10-13T02:53:11;8.68;;;4.35;;
78787;SDS011;68131;52.508;5.502;2023-10-13T02:55:51;9.45;;;3.85;;
78787;SDS011;68131;52.508;5.502;2023-10-13T02:58:21;7.47;;;3.85;;
78787;SDS011;68131;52.508;5.502;2023-10-13T03:00:48;6.25;;;3.92;;
78787;SDS011;68131;52.508;5.502;2023-10-13T03:03:17;6.63;;;2.95;;
78787;SDS011;68131;52.508;5.502;2023-10-13T03:05:46;6.55;;;3.67;;
78787;SDS011;68131;52.508;5.502;2023-10-13T03:08:17;8.77;;;3.42;;
78787;SDS011;68131;52.508;5.502;2023-10-13T03:10:55;6.75;;;4.00;;
78787;SDS011;68131;52.508;5.502;2023-10-13T03:13:28;6.05;;;3.60;;
78787;SDS011;68131;52.508;5.502;2023-10-13T03:16:02;6.53;;;4.07;;
78787;SDS011;68131;52.508;5.502;2023-10-13T03:18:42;6.68;;;4.13;;
78787;SDS011;68131;52.508;5.502;2023-10-13T03:21:20;5.28;;;3.15;;
78787;SDS011;68131;52.508;5.502;2023-10-13T03:24:01;6.72;;;3.90;;
78787;SDS011;68131;52.508;5.502;2023-10-13T03:26:36;7.18;;;3.00;;
78787;SDS011;68131;52.508;5.502;2023-10-13T03:29:11;8.38;;;4.10;;
78787;SDS011;68131;52.508;5.502;2023-10-13T03:31:50;5.75;;;3.92;;
78787;SDS011;68131;52.508;5.502;2023-10-13T03:34:32;5.72;;;3.60;;
78787;SDS011;68131;52.508;5.502;2023-10-13T03:37:06;5.05;;;2.92;;
78787;SDS011;68131;52.508;5.502;2023-10-13T03:39:45;7.68;;;3.42;;
78787;SDS011;68131;52.508;5.502;2023-10-13T03:42:19;6.38;;;3.10;;
78787;SDS011;68131;52.508;5.502;2023-10-13T03:44:49;5.93;;;3.03;;
78787;SDS011;68131;52.508;5.502;2023-10-13T03:47:20;5.22;;;3.03;;
78787;SDS011;68131;52.508;5.502;2023-10-13T03:50:00;8.80;;;3.22;;
78787;SDS011;68131;52.508;5.502;2023-10-13T03:52:56;5.28;;;3.47;;
78787;SDS011;68131;52.508;5.502;2023-10-13T03:55:26;5.35;;;2.75;;
78787;SDS011;68131;52.508;5.502;2023-10-13T03:58:03;5.00;;;2.95;;
78787;SDS011;68131;52.508;5.502;2023-10-13T04:00:39;5.47;;;2.80;;
78787;SDS011;68131;52.508;5.502;2023-10-13T04:03:10;6.10;;;3.13;;
78787;SDS011;68131;52.508;5.502;2023-10-13T04:05:42;6.70;;;3.00;;
78787;SDS011;68131;52.508;5.502;2023-10-13T04:08:26;5.53;;;3.42;;
78787;SDS011;68131;52.508;5.502;2023-10-13T04:11:08;4.82;;;2.83;;
78787;SDS011;68131;52.508;5.502;2023-10-13T04:13:54;5.07;;;3.03;;
78787;SDS011;68131;52.508;5.502;2023-10-13T04:16:35;5.38;;;3.08;;
78787;SDS011;68131;52.508;5.502;2023-10-13T04:19:16;5.70;;;2.70;;
78787;SDS011;68131;52.508;5.502;2023-10-13T04:21:51;4.63;;;2.38;;
78787;SDS011;68131;52.508;5.502;2023-10-13T04:24:40;5.15;;;2.67;;
78787;SDS011;68131;52.508;5.502;2023-10-13T04:27:21;4.90;;;2.83;;
78787;SDS011;68131;52.508;5.502;2023-10-13T04:30:07;3.83;;;2.35;;
78787;SDS011;68131;52.508;5.502;2023-10-13T04:32:53;6.28;;;3.03;;
78787;SDS011;68131;52.508;5.502;2023-10-13T04:35:34;5.78;;;2.80;;
78787;SDS011;68131;52.508;5.502;2023-10-13T04:38:13;3.65;;;2.35;;
78787;SDS011;68131;52.508;5.502;2023-10-13T04:40:58;8.88;;;2.72;;
78787;SDS011;68131;52.508;5.502;2023-10-13T04:43:27;3.28;;;2.03;;
78787;SDS011;68131;52.508;5.502;2023-10-13T04:46:23;5.28;;;2.25;;
78787;SDS011;68131;52.508;5.502;2023-10-13T04:52:02;4.03;;;2.13;;
78787;SDS011;68131;52.508;5.502;2023-10-13T04:54:39;4.82;;;3.00;;
78787;SDS011;68131;52.508;5.502;2023-10-13T04:57:21;3.17;;;2.25;;
78787;SDS011;68131;52.508;5.502;2023-10-13T04:59:58;4.00;;;2.03;;
78787;SDS011;68131;52.508;5.502;2023-10-13T05:02:44;2.67;;;2.20;;
78787;SDS011;68131;52.508;5.502;2023-10-13T05:05:44;2.70;;;1.65;;
78787;SDS011;68131;52.508;5.502;2023-10-13T05:08:21;2.50;;;1.73;;
78787;SDS011;68131;52.508;5.502;2023-10-13T05:11:03;2.15;;;1.65;;
78787;SDS011;68131;52.508;5.502;2023-10-13T05:13:53;4.65;;;2.00;;
78787;SDS011;68131;52.508;5.502;2023-10-13T05:16:35;4.25;;;1.77;;
78787;SDS011;68131;52.508;5.502;2023-10-13T05:19:19;2.65;;;1.65;;
78787;SDS011;68131;52.508;5.502;2023-10-13T05:22:01;2.55;;;1.90;;
78787;SDS011;68131;52.508;5.502;2023-10-13T05:24:48;4.57;;;1.73;;
78787;SDS011;68131;52.508;5.502;2023-10-13T05:27:29;2.38;;;1.70;;
78787;SDS011;68131;52.508;5.502;2023-10-13T05:30:12;1.95;;;1.15;;
78787;SDS011;68131;52.508;5.502;2023-10-13T05:32:53;2.25;;;1.77;;
78787;SDS011;68131;52.508;5.502;2023-10-13T05:35:40;1.90;;;1.45;;
78787;SDS011;68131;52.508;5.502;2023-10-13T05:38:21;2.33;;;1.50;;
78787;SDS011;68131;52.508;5.502;2023-10-13T05:41:05;2.85;;;1.77;;
78787;SDS011;68131;52.508;5.502;2023-10-13T05:43:49;1.48;;;1.20;;
78787;SDS011;68131;52.508;5.502;2023-10-13T05:46:31;1.63;;;1.40;;
78787;SDS011;68131;52.508;5.502;2023-10-13T05:49:12;4.07;;;2.13;;
78787;SDS011;68131;52.508;5.502;2023-10-13T05:51:59;2.88;;;1.50;;
78787;SDS011;68131;52.508;5.502;2023-10-13T05:54:33;1.58;;;0.90;;
78787;SDS011;68131;52.508;5.502;2023-10-13T05:57:20;1.70;;;1.30;;
78787;SDS011;68131;52.508;5.502;2023-10-13T06:00:04;3.97;;;1.10;;
78787;SDS011;68131;52.508;5.502;2023-10-13T06:02:46;0.95;;;0.77;;
78787;SDS011;68131;52.508;5.502;2023-10-13T06:05:30;1.60;;;1.05;;
78787;SDS011;68131;52.508;5.502;2023-10-13T06:08:20;2.63;;;1.30;;
78787;SDS011;68131;52.508;5.502;2023-10-13T06:11:01;1.80;;;1.10;;
78787;SDS011;68131;52.508;5.502;2023-10-13T06:13:43;3.45;;;1.30;;
78787;SDS011;68131;52.508;5.502;2023-10-13T06:16:25;4.85;;;1.50;;
78787;SDS011;68131;52.508;5.502;2023-10-13T06:19:07;2.25;;;1.15;;
78787;SDS011;68131;52.508;5.502;2023-10-13T06:21:48;4.45;;;1.58;;
78787;SDS011;68131;52.508;5.502;2023-10-13T06:24:32;5.55;;;1.35;;
78787;SDS011;68131;52.508;5.502;2023-10-13T06:27:16;4.10;;;1.23;;
78787;SDS011;68131;52.508;5.502;2023-10-13T06:29:58;4.50;;;1.40;;
78787;SDS011;68131;52.508;5.502;2023-10-13T06:32:27;4.13;;;1.30;;
78787;SDS011;68131;52.508;5.502;2023-10-13T06:35:00;3.80;;;1.77;;
78787;SDS011;68131;52.508;5.502;2023-10-13T06:37:32;2.95;;;1.20;;
78787;SDS011;68131;52.508;5.502;2023-10-13T06:40:11;3.55;;;1.42;;
78787;SDS011;68131;52.508;5.502;2023-10-13T06:42:51;1.38;;;1.17;;
78787;SDS011;68131;52.508;5.502;2023-10-13T06:45:37;6.88;;;1.42;;
78787;SDS011;68131;52.508;5.502;2023-10-13T06:48:09;1.73;;;1.08;;
78787;SDS011;68131;52.508;5.502;2023-10-13T06:53:17;3.33;;;1.55;;
78787;SDS011;68131;52.508;5.502;2023-10-13T06:55:51;2.15;;;1.40;;
78787;SDS011;68131;52.508;5.502;2023-10-13T06:58:25;8.32;;;1.70;;
78787;SDS011;68131;52.508;5.502;2023-10-13T07:00:54;5.97;;;1.98;;
78787;SDS011;68131;52.508;5.502;2023-10-13T07:03:27;3.22;;;1.30;;
78787;SDS011;68131;52.508;5.502;2023-10-13T07:05:56;3.15;;;1.45;;
78787;SDS011;68131;52.508;5.502;2023-10-13T07:08:29;4.65;;;1.50;;
78787;SDS011;68131;52.508;5.502;2023-10-13T07:11:05;2.25;;;1.38;;
78787;SDS011;68131;52.508;5.502;2023-10-13T07:13:41;3.65;;;1.58;;
78787;SDS011;68131;52.508;5.502;2023-10-13T07:16:20;6.15;;;1.38;;
78787;SDS011;68131;52.508;5.502;2023-10-13T07:19:01;3.70;;;2.42;;
78787;SDS011;68131;52.508;5.502;2023-10-13T07:21:33;4.32;;;1.65;;
78787;SDS011;68131;52.508;5.502;2023-10-13T07:24:13;7.55;;;2.15;;
78787;SDS011;68131;52.508;5.502;2023-10-13T07:26:49;2.13;;;1.42;;
78787;SDS011;68131;52.508;5.502;2023-10-13T07:29:29;4.97;;;1.77;;
78787;SDS011;68131;52.508;5.502;2023-10-13T07:32:01;3.53;;;1.30;;
78787;SDS011;68131;52.508;5.502;2023-10-13T07:34:38;4.53;;;1.30;;
78787;SDS011;68131;52.508;5.502;2023-10-13T07:37:07;2.42;;;1.58;;
78787;SDS011;68131;52.508;5.502;2023-10-13T07:39:42;3.90;;;1.38;;
78787;SDS011;68131;52.508;5.502;2023-10-13T07:42:26;5.70;;;1.63;;
78787;SDS011;68131;52.508;5.502;2023-10-13T07:45:05;2.75;;;1.83;;
78787;SDS011;68131;52.508;5.502;2023-10-13T07:47:38;2.65;;;1.30;;
78787;SDS011;68131;52.508;5.502;2023-10-13T07:50:11;4.63;;;1.77;;
78787;SDS011;68131;52.508;5.502;2023-10-13T07:52:52;8.63;;;2.15;;
78787;SDS011;68131;52.508;5.502;2023-10-13T07:55:45;4.75;;;2.08;;
78787;SDS011;68131;52.508;5.502;2023-10-13T07:58:22;4.00;;;2.38;;
78787;SDS011;68131;52.508;5.502;2023-10-13T08:00:53;3.25;;;2.30;;
78787;SDS011;68131;52.508;5.502;2023-10-13T08:03:32;3.00;;;2.28;;
78787;SDS011;68131;52.508;5.502;2023-10-13T08:06:12;5.55;;;3.33;;
78787;SDS011;68131;52.508;5.502;2023-10-13T08:09:04;2.63;;;2.10;;
78787;SDS011;68131;52.508;5.502;2023-10-13T08:11:55;6.20;;;2.53;;
78787;SDS011;68131;52.508;5.502;2023-10-13T08:14:34;5.10;;;2.78;;
78787;SDS011;68131;52.508;5.502;2023-10-13T08:17:06;7.22;;;2.47;;
78787;SDS011;68131;52.508;5.502;2023-10-13T08:19:38;11.73;;;3.20;;
78787;SDS011;68131;52.508;5.502;2023-10-13T08:22:16;4.32;;;2.33;;
78787;SDS011;68131;52.508;5.502;2023-10-13T08:25:01;4.95;;;2.38;;
78787;SDS011;68131;52.508;5.502;2023-10-13T08:27:43;3.88;;;2.45;;
78787;SDS011;68131;52.508;5.502;2023-10-13T08:30:34;4.43;;;2.47;;
78787;SDS011;68131;52.508;5.502;2023-10-13T08:33:17;8.10;;;2.22;;
78787;SDS011;68131;52.508;5.502;2023-10-13T08:35:51;3.45;;;2.38;;
78787;SDS011;68131;52.508;5.502;2023-10-13T08:38:53;5.38;;;2.58;;
78787;SDS011;68131;52.508;5.502;2023-10-13T08:41:23;3.25;;;2.03;;
78787;SDS011;68131;52.508;5.502;2023-10-13T08:44:01;4.97;;;2.25;;
78787;SDS011;68131;52.508;5.502;2023-10-13T08:46:39;4.22;;;2.22;;
78787;SDS011;68131;52.508;5.502;2023-10-13T08:49:29;4.28;;;1.83;;
78787;SDS011;68131;52.508;5.502;2023-10-13T08:52:07;3.42;;;1.77;;
78787;SDS011;68131;52.508;5.502;2023-10-13T08:54:55;7.07;;;2.42;;
78787;SDS011;68131;52.508;5.502;2023-10-13T08:58:02;2.85;;;1.73;;
78787;SDS011;68131;52.508;5.502;2023-10-13T09:00:40;5.43;;;2.10;;
78787;SDS011;68131;52.508;5.502;2023-10-13T09:03:40;3.15;;;1.90;;
78787;SDS011;68131;52.508;5.502;2023-10-13T09:06:15;6.25;;;2.00;;
78787;SDS011;68131;52.508;5.502;2023-10-13T09:08:50;2.55;;;1.85;;
78787;SDS011;68131;52.508;5.502;2023-10-13T09:11:53;8.55;;;2.25;;
78787;SDS011;68131;52.508;5.502;2023-10-13T09:14:34;5.93;;;1.90;;
78787;SDS011;68131;52.508;5.502;2023-10-13T09:17:10;1.98;;;1.40;;
78787;SDS011;68131;52.508;5.502;2023-10-13T09:20:03;5.40;;;1.95;;
78787;SDS011;68131;52.508;5.502;2023-10-13T09:22:50;4.10;;;1.90;;
78787;SDS011;68131;52.508;5.502;2023-10-13T09:25:34;4.80;;;1.90;;
78787;SDS011;68131;52.508;5.502;2023-10-13T09:28:10;2.85;;;1.63;;
78787;SDS011;68131;52.508;5.502;2023-10-13T09:30:44;8.32;;;2.55;;
78787;SDS011;68131;52.508;5.502;2023-10-13T09:33:11;3.28;;;1.88;;
78787;SDS011;68131;52.508;5.502;2023-10-13T09:35:51;4.68;;;1.90;;
78787;SDS011;68131;52.508;5.502;2023-10-13T09:38:25;3.55;;;2.13;;
78787;SDS011;68131;52.508;5.502;2023-10-13T09:41:06;4.43;;;1.83;;
78787;SDS011;68131;52.508;5.502;2023-10-13T09:43:44;3.40;;;2.00;;
78787;SDS011;68131;52.508;5.502;2023-10-13T09:46:18;4.18;;;1.70;;
78787;SDS011;68131;52.508;5.502;2023-10-13T09:48:54;6.53;;;2.03;;
78787;SDS011;68131;52.508;5.502;2023-10-13T09:51:37;3.45;;;1.73;;
78787;SDS011;68131;52.508;5.502;2023-10-13T09:54:09;6.85;;;2.33;;
78787;SDS011;68131;52.508;5.502;2023-10-13T09:56:55;5.80;;;1.90;;
78787;SDS011;68131;52.508;5.502;2023-10-13T09:59:29;3.42;;;1.42;;
78787;SDS011;68131;52.508;5.502;2023-10-13T10:02:05;6.47;;;2.05;;
78787;SDS011;68131;52.508;5.502;2023-10-13T10:04:50;4.30;;;1.80;;
78787;SDS011;68131;52.508;5.502;2023-10-13T10:07:27;4.47;;;1.98;;
78787;SDS011;68131;52.508;5.502;2023-10-13T10:10:01;6.47;;;2.08;;
78787;SDS011;68131;52.508;5.502;2023-10-13T10:12:37;3.20;;;1.55;;
78787;SDS011;68131;52.508;5.502;2023-10-13T10:15:23;4.65;;;1.70;;
78787;SDS011;68131;52.508;5.502;2023-10-13T10:18:01;5.95;;;1.90;;
78787;SDS011;68131;52.508;5.502;2023-10-13T10:20:34;6.05;;;2.22;;
78787;SDS011;68131;52.508;5.502;2023-10-13T10:23:28;8.15;;;2.22;;
78787;SDS011;68131;52.508;5.502;2023-10-13T10:26:09;5.43;;;1.45;;
78787;SDS011;68131;52.508;5.502;2023-10-13T10:28:49;4.53;;;2.17;;
78787;SDS011;68131;52.508;5.502;2023-10-13T10:31:19;3.35;;;1.52;;
78787;SDS011;68131;52.508;5.502;2023-10-13T10:34:14;4.85;;;1.75;;
78787;SDS011;68131;52.508;5.502;2023-10-13T10:36:53;5.32;;;2.10;;
78787;SDS011;68131;52.508;5.502;2023-10-13T10:39:36;3.13;;;1.80;;
78787;SDS011;68131;52.508;5.502;2023-10-13T10:42:15;3.72;;;1.85;;
78787;SDS011;68131;52.508;5.502;2023-10-13T10:44:50;7.97;;;1.95;;
78787;SDS011;68131;52.508;5.502;2023-10-13T10:47:34;11.05;;;2.63;;
78787;SDS011;68131;52.508;5.502;2023-10-13T10:50:05;3.00;;;1.90;;
78787;SDS011;68131;52.508;5.502;2023-10-13T10:52:45;6.45;;;2.33;;
78787;SDS011;68131;52.508;5.502;2023-10-13T10:55:31;8.63;;;2.63;;
78787;SDS011;68131;52.508;5.502;2023-10-13T10:58:08;4.28;;;2.13;;
78787;SDS011;68131;52.508;5.502;2023-10-13T11:01:07;3.83;;;2.28;;
78787;SDS011;68131;52.508;5.502;2023-10-13T11:03:52;4.07;;;1.95;;
78787;SDS011;68131;52.508;5.502;2023-10-13T11:06:27;4.40;;;2.20;;
78787;SDS011;68131;52.508;5.502;2023-10-13T11:09:03;3.85;;;1.98;;
78787;SDS011;68131;52.508;5.502;2023-10-13T11:11:47;8.82;;;2.50;;
78787;SDS011;68131;52.508;5.502;2023-10-13T11:14:19;4.47;;;2.15;;
78787;SDS011;68131;52.508;5.502;2023-10-13T11:16:51;3.10;;;1.75;;
78787;SDS011;68131;52.508;5.502;2023-10-13T11:19:33;5.75;;;2.45;;
78787;SDS011;68131;52.508;5.502;2023-10-13T11:22:10;4.15;;;1.98;;
78787;SDS011;68131;52.508;5.502;2023-10-13T11:24:55;7.05;;;2.55;;
78787;SDS011;68131;52.508;5.502;2023-10-13T11:27:30;6.15;;;2.05;;
78787;SDS011;68131;52.508;5.502;2023-10-13T11:30:13;5.97;;;1.73;;
78787;SDS011;68131;52.508;5.502;2023-10-13T11:32:56;7.05;;;2.20;;
78787;SDS011;68131;52.508;5.502;2023-10-13T11:35:26;9.77;;;2.60;;
78787;SDS011;68131;52.508;5.502;2023-10-13T11:38:15;5.03;;;2.42;;
78787;SDS011;68131;52.508;5.502;2023-10-13T11:40:52;5.40;;;2.25;;
78787;SDS011;68131;52.508;5.502;2023-10-13T11:43:45;5.25;;;2.15;;
78787;SDS011;68131;52.508;5.502;2023-10-13T11:46:32;7.95;;;2.35;;
78787;SDS011;68131;52.508;5.502;2023-10-13T11:49:19;6.90;;;2.05;;
78787;SDS011;68131;52.508;5.502;2023-10-13T11:51:57;4.80;;;2.78;;
78787;SDS011;68131;52.508;5.502;2023-10-13T11:54:36;8.82;;;2.50;;
78787;SDS011;68131;52.508;5.502;2023-10-13T11:57:08;4.05;;;2.25;;
78787;SDS011;68131;52.508;5.502;2023-10-13T11:59:43;4.78;;;2.95;;
78787;SDS011;68131;52.508;5.502;2023-10-13T12:02:20;4.47;;;2.22;;
78787;SDS011;68131;52.508;5.502;2023-10-13T12:05:02;4.57;;;2.50;;
78787;SDS011;68131;52.508;5.502;2023-10-13T12:07:38;6.78;;;2.30;;
78787;SDS011;68131;52.508;5.502;2023-10-13T12:10:22;3.67;;;1.83;;
78787;SDS011;68131;52.508;5.502;2023-10-13T12:13:15;7.88;;;2.72;;
78787;SDS011;68131;52.508;5.502;2023-10-13T12:15:51;4.53;;;2.13;;
78787;SDS011;68131;52.508;5.502;2023-10-13T12:18:22;7.93;;;2.25;;
78787;SDS011;68131;52.508;5.502;2023-10-13T12:20:58;6.57;;;2.35;;
78787;SDS011;68131;52.508;5.502;2023-10-13T12:23:38;6.53;;;2.20;;
78787;SDS011;68131;52.508;5.502;2023-10-13T12:26:12;4.35;;;2.20;;
78787;SDS011;68131;52.508;5.502;2023-10-13T12:28:58;2.47;;;1.88;;
78787;SDS011;68131;52.508;5.502;2023-10-13T12:31:47;9.63;;;2.80;;
78787;SDS011;68131;52.508;5.502;2023-10-13T12:34:31;6.57;;;2.53;;
78787;SDS011;68131;52.508;5.502;2023-10-13T12:37:17;4.70;;;2.15;;
78787;SDS011;68131;52.508;5.502;2023-10-13T12:40:05;4.25;;;1.98;;
78787;SDS011;68131;52.508;5.502;2023-10-13T12:42:49;4.55;;;2.30;;
78787;SDS011;68131;52.508;5.502;2023-10-13T12:45:31;10.20;;;1.95;;
78787;SDS011;68131;52.508;5.502;2023-10-13T12:48:15;5.32;;;2.28;;
78787;SDS011;68131;52.508;5.502;2023-10-13T12:51:00;8.65;;;2.78;;
78787;SDS011;68131;52.508;5.502;2023-10-13T12:53:45;3.17;;;1.60;;
78787;SDS011;68131;52.508;5.502;2023-10-13T12:56:15;7.60;;;2.17;;
78787;SDS011;68131;52.508;5.502;2023-10-13T12:58:51;5.90;;;2.60;;
78787;SDS011;68131;52.508;5.502;2023-10-13T13:01:22;5.60;;;2.42;;
78787;SDS011;68131;52.508;5.502;2023-10-13T13:04:02;7.75;;;2.30;;
78787;SDS011;68131;52.508;5.502;2023-10-13T13:06:37;7.25;;;1.98;;
78787;SDS011;68131;52.508;5.502;2023-10-13T13:09:10;6.05;;;2.50;;
78787;SDS011;68131;52.508;5.502;2023-10-13T13:11:51;8.73;;;2.40;;
78787;SDS011;68131;52.508;5.502;2023-10-13T13:14:22;5.00;;;1.70;;
78787;SDS011;68131;52.508;5.502;2023-10-13T13:17:05;5.20;;;2.95;;
78787;SDS011;68131;52.508;5.502;2023-10-13T13:19:40;7.20;;;2.72;;
78787;SDS011;68131;52.508;5.502;2023-10-13T13:22:16;4.15;;;2.42;;
78787;SDS011;68131;52.508;5.502;2023-10-13T13:24:51;5.32;;;2.78;;
78787;SDS011;68131;52.508;5.502;2023-10-13T13:27:20;6.50;;;2.30;;
78787;SDS011;68131;52.508;5.502;2023-10-13T13:29:50;5.80;;;2.63;;
78787;SDS011;68131;52.508;5.502;2023-10-13T13:32:24;5.07;;;2.50;;
78787;SDS011;68131;52.508;5.502;2023-10-13T13:34:57;6.13;;;2.55;;
78787;SDS011;68131;52.508;5.502;2023-10-13T13:37:35;5.50;;;2.75;;
78787;SDS011;68131;52.508;5.502;2023-10-13T13:40:10;4.13;;;2.40;;
78787;SDS011;68131;52.508;5.502;2023-10-13T13:42:47;4.63;;;2.38;;
78787;SDS011;68131;52.508;5.502;2023-10-13T13:45:18;7.25;;;2.63;;
78787;SDS011;68131;52.508;5.502;2023-10-13T13:47:53;5.65;;;2.30;;
78787;SDS011;68131;52.508;5.502;2023-10-13T13:50:37;4.75;;;1.98;;
78787;SDS011;68131;52.508;5.502;2023-10-13T13:53:18;5.47;;;2.63;;
78787;SDS011;68131;52.508;5.502;2023-10-13T13:55:53;4.47;;;2.40;;
78787;SDS011;68131;52.508;5.502;2023-10-13T14:01:02;7.35;;;2.75;;
78787;SDS011;68131;52.508;5.502;2023-10-13T14:03:38;8.27;;;2.65;;
78787;SDS011;68131;52.508;5.502;2023-10-13T14:06:20;9.43;;;2.63;;
78787;SDS011;68131;52.508;5.502;2023-10-13T14:08:54;6.00;;;2.95;;
78787;SDS011;68131;52.508;5.502;2023-10-13T14:11:33;6.00;;;2.63;;
78787;SDS011;68131;52.508;5.502;2023-10-13T14:14:16;5.38;;;2.20;;
78787;SDS011;68131;52.508;5.502;2023-10-13T14:16:59;7.47;;;2.95;;
78787;SDS011;68131;52.508;5.502;2023-10-13T14:19:33;7.85;;;3.13;;
78787;SDS011;68131;52.508;5.502;2023-10-13T14:22:09;4.32;;;2.50;;
78787;SDS011;68131;52.508;5.502;2023-10-13T14:24:43;8.80;;;3.33;;
78787;SDS011;68131;52.508;5.502;2023-10-13T14:27:16;11.50;;;3.60;;
78787;SDS011;68131;52.508;5.502;2023-10-13T14:29:51;5.07;;;2.60;;
78787;SDS011;68131;52.508;5.502;2023-10-13T14:32:23;7.07;;;3.33;;
78787;SDS011;68131;52.508;5.502;2023-10-13T14:35:07;5.55;;;2.75;;
78787;SDS011;68131;52.508;5.502;2023-10-13T14:37:45;8.40;;;2.75;;
78787;SDS011;68131;52.508;5.502;2023-10-13T14:40:20;5.43;;;2.83;;
78787;SDS011;68131;52.508;5.502;2023-10-13T14:42:57;6.22;;;3.20;;
78787;SDS011;68131;52.508;5.502;2023-10-13T14:45:31;7.18;;;2.70;;
78787;SDS011;68131;52.508;5.502;2023-10-13T14:48:00;5.85;;;3.33;;
78787;SDS011;68131;52.508;5.502;2023-10-13T14:50:37;7.10;;;3.08;;
78787;SDS011;68131;52.508;5.502;2023-10-13T14:53:13;9.30;;;4.28;;
78787;SDS011;68131;52.508;5.502;2023-10-13T14:55:47;7.28;;;3.15;;
78787;SDS011;68131;52.508;5.502;2023-10-13T14:58:17;7.25;;;2.90;;
78787;SDS011;68131;52.508;5.502;2023-10-13T15:00:52;6.57;;;3.13;;
78787;SDS011;68131;52.508;5.502;2023-10-13T15:03:34;6.25;;;3.15;;
78787;SDS011;68131;52.508;5.502;2023-10-13T15:06:14;8.00;;;3.33;;
78787;SDS011;68131;52.508;5.502;2023-10-13T15:08:48;8.10;;;3.03;;
78787;SDS011;68131;52.508;5.502;2023-10-13T15:11:22;9.18;;;3.05;;
78787;SDS011;68131;52.508;5.502;2023-10-13T15:16:27;8.57;;;3.53;;
78787;SDS011;68131;52.508;5.502;2023-10-13T15:18:58;3.47;;;2.20;;
78787;SDS011;68131;52.508;5.502;2023-10-13T15:21:49;4.57;;;2.08;;
78787;SDS011;68131;52.508;5.502;2023-10-13T15:24:29;7.68;;;2.45;;
78787;SDS011;68131;52.508;5.502;2023-10-13T15:27:10;4.85;;;2.00;;
78787;SDS011;68131;52.508;5.502;2023-10-13T15:29:40;5.70;;;2.05;;
78787;SDS011;68131;52.508;5.502;2023-10-13T15:32:20;6.90;;;1.40;;
78787;SDS011;68131;52.508;5.502;2023-10-13T15:35:04;3.70;;;1.35;;
78787;SDS011;68131;52.508;5.502;2023-10-13T15:37:38;1.83;;;1.30;;
78787;SDS011;68131;52.508;5.502;2023-10-13T15:40:24;5.65;;;1.45;;
78787;SDS011;68131;52.508;5.502;2023-10-13T15:42:56;3.53;;;1.40;;
78787;SDS011;68131;52.508;5.502;2023-10-13T15:45:27;3.70;;;1.30;;
78787;SDS011;68131;52.508;5.502;2023-10-13T15:48:22;3.90;;;1.63;;
78787;SDS011;68131;52.508;5.502;2023-10-13T15:50:53;3.58;;;1.70;;
78787;SDS011;68131;52.508;5.502;2023-10-13T15:53:24;1.23;;;1.00;;
78787;SDS011;68131;52.508;5.502;2023-10-13T15:55:56;2.05;;;0.90;;
78787;SDS011;68131;52.508;5.502;2023-10-13T15:58:25;2.75;;;1.30;;
78787;SDS011;68131;52.508;5.502;2023-10-13T16:00:58;2.10;;;1.05;;
78787;SDS011;68131;52.508;5.502;2023-10-13T16:03:36;3.20;;;1.42;;